Time,TemperatureF,DewpointF,PressureIn,WindDirection,WindDirectionDegrees,WindSpeedMPH,WindSpeedGustMPH,Humidity,HourlyPrecipIn,Conditions,Clouds,dailyrainin,SolarRadiationWatts/m^2,SoftwareType,DateUTC
2013-05-31 00:00:00,65.7,62.0,29.47,SSW,205,5.0,6.0,88,0.00,,---,0.17,0.00,VWS V14.01,2013-05-31 05:00:00,
2013-05-31 00:01:00,65.7,62.0,29.47,SSW,205,5.0,6.0,88,0.00,,---,0.17,0.00,VWS V14.01,2013-05-31 05:01:00,
2013-05-31 00:05:00,65.8,62.2,29.47,SW,223,3.0,10.0,88,0.00,,---,0.00,0.00,VWS V14.01,2013-05-31 05:05:00,
2013-05-31 00:06:00,65.8,62.2,29.47,SW,223,3.0,10.0,88,0.00,,---,0.00,0.00,VWS V14.01,2013-05-31 05:06:00,
2013-05-31 00:10:00,65.8,61.8,29.47,South,189,1.0,6.0,87,0.00,,---,0.00,0.00,VWS V14.01,2013-05-31 05:10:00,
2013-05-31 00:15:00,65.7,61.7,29.47,SE,146,3.0,5.0,87,0.00,,---,0.00,0.00,VWS V14.01,2013-05-31 05:15:00,
2013-05-31 00:20:00,65.6,61.6,29.47,SSW,195,0.0,5.0,87,0.00,,---,0.00,0.00,VWS V14.01,2013-05-31 05:20:00,
2013-05-31 00:21:00,65.6,61.6,29.47,SSW,195,0.0,5.0,87,0.00,,---,0.00,0.00,VWS V14.01,2013-05-31 05:21:00,
2013-05-31 00:25:00,65.5,61.5,29.47,SSW,211,0.0,5.0,87,0.00,,---,0.00,0.00,VWS V14.01,2013-05-31 05:25:00,
2013-05-31 00:30:00,65.4,61.8,29.47,SSE,163,0.0,6.0,88,0.00,,---,0.00,0.00,VWS V14.01,2013-05-31 05:30:00,
2013-05-31 00:35:00,65.3,61.7,29.47,SE,130,1.0,7.0,88,0.00,,---,0.00,0.00,VWS V14.01,2013-05-31 05:35:00,
2013-05-31 00:36:00,65.3,61.7,29.47,SE,130,1.0,7.0,88,0.00,,---,0.00,0.00,VWS V14.01,2013-05-31 05:36:00,
2013-05-31 00:40:00,65.2,61.6,29.47,ESE,109,0.0,9.0,88,0.00,,---,0.00,0.00,VWS V14.01,2013-05-31 05:40:00,
2013-05-31 00:45:00,65.2,61.6,29.47,East,79,2.0,4.0,88,0.00,,---,0.00,0.00,VWS V14.01,2013-05-31 05:45:00,
2013-05-31 00:50:00,65.1,61.5,29.47,ESE,115,6.0,10.0,88,0.00,,---,0.00,0.00,VWS V14.01,2013-05-31 05:50:00,
2013-05-31 00:51:00,65.1,61.5,29.47,ESE,115,6.0,10.0,88,0.00,,---,0.00,0.00,VWS V14.01,2013-05-31 05:51:00,
2013-05-31 00:55:00,65.1,61.5,29.48,ESE,107,3.0,9.0,88,0.00,,---,0.00,0.00,VWS V14.01,2013-05-31 05:55:00,
2013-05-31 00:56:00,65.1,61.5,29.48,ESE,107,3.0,9.0,88,0.00,,---,0.00,0.00,VWS V14.01,2013-05-31 05:56:00,
2013-05-31 01:00:00,65.2,61.6,29.47,SE,126,4.0,6.0,88,0.00,,---,0.00,0.00,VWS V14.01,2013-05-31 06:00:00,
2013-05-31 01:05:00,65.2,61.6,29.47,ESE,117,0.0,9.0,88,0.00,,---,0.00,0.00,VWS V14.01,2013-05-31 06:05:00,
2013-05-31 01:10:00,65.2,61.6,29.47,SSW,193,7.0,7.0,88,0.00,,---,0.00,0.00,VWS V14.01,2013-05-31 06:10:00,
2013-05-31 01:11:00,65.2,61.6,29.47,SSW,193,7.0,7.0,88,0.00,,---,0.00,0.00,VWS V14.01,2013-05-31 06:11:00,
2013-05-31 01:15:00,65.2,61.9,29.46,SE,144,5.0,7.0,89,0.00,,---,0.00,0.00,VWS V14.01,2013-05-31 06:15:00,
2013-05-31 01:20:00,65.2,61.9,29.46,SE,125,0.0,5.0,89,0.00,,---,0.00,0.00,VWS V14.01,2013-05-31 06:20:00,
2013-05-31 01:21:00,65.2,61.9,29.46,SE,125,0.0,5.0,89,0.00,,---,0.00,0.00,VWS V14.01,2013-05-31 06:21:00,
2013-05-31 01:25:00,65.1,61.8,29.45,SE,138,5.0,11.0,89,0.00,,---,0.00,0.00,VWS V14.01,2013-05-31 06:25:00,
2013-05-31 01:30:00,65.1,61.5,29.45,ESE,114,4.0,13.0,88,0.00,,---,0.00,0.00,VWS V14.01,2013-05-31 06:30:00,
2013-05-31 01:35:00,65.0,61.7,29.45,ESE,106,3.0,12.0,89,0.00,,---,0.00,0.00,VWS V14.01,2013-05-31 06:35:00,
2013-05-31 01:40:00,65.0,61.7,29.45,SSW,196,6.0,6.0,89,0.00,,---,0.00,0.00,VWS V14.01,2013-05-31 06:40:00,
2013-05-31 01:41:00,65.0,61.7,29.45,SSW,196,6.0,6.0,89,0.00,,---,0.00,0.00,VWS V14.01,2013-05-31 06:41:00,
2013-05-31 01:45:00,65.0,61.7,29.46,South,187,3.0,14.0,89,0.00,,---,0.00,0.00,VWS V14.01,2013-05-31 06:45:00,
2013-05-31 01:50:00,64.9,61.6,29.47,SSW,192,5.0,16.0,89,0.01,,---,0.01,0.00,VWS V14.01,2013-05-31 06:50:00,
2013-05-31 01:51:00,64.9,61.6,29.47,SSW,192,5.0,16.0,89,0.01,,---,0.01,0.00,VWS V14.01,2013-05-31 06:51:00,
2013-05-31 01:55:00,63.9,60.9,29.46,South,191,4.0,18.0,90,0.09,,---,0.09,0.00,VWS V14.01,2013-05-31 06:55:00,
2013-05-31 01:56:00,63.9,60.9,29.46,South,191,4.0,18.0,90,0.09,,---,0.09,0.00,VWS V14.01,2013-05-31 06:56:00,
2013-05-31 02:00:00,63.3,60.6,29.46,SW,218,5.0,12.0,91,0.09,,---,0.09,0.00,VWS V14.01,2013-05-31 07:00:00,
2013-05-31 02:01:00,63.3,60.6,29.46,SW,218,5.0,12.0,91,0.09,,---,0.09,0.00,VWS V14.01,2013-05-31 07:01:00,
2013-05-31 02:05:00,63.5,61.1,29.46,SSW,213,4.0,10.0,92,0.09,,---,0.09,0.00,VWS V14.01,2013-05-31 07:05:00,
2013-05-31 02:10:00,63.8,61.4,29.45,East,101,4.0,7.0,92,0.09,,---,0.09,0.00,VWS V14.01,2013-05-31 07:10:00,
2013-05-31 02:15:00,63.8,61.4,29.45,SE,139,5.0,11.0,92,0.09,,---,0.09,0.00,VWS V14.01,2013-05-31 07:15:00,
2013-05-31 02:16:00,63.8,61.4,29.45,SE,139,5.0,11.0,92,0.09,,---,0.09,0.00,VWS V14.01,2013-05-31 07:16:00,
2013-05-31 02:20:00,63.6,61.2,29.45,ESE,105,2.0,6.0,92,0.09,,---,0.09,0.00,VWS V14.01,2013-05-31 07:20:00,
2013-05-31 02:21:00,63.6,61.2,29.45,ESE,105,2.0,6.0,92,0.09,,---,0.09,0.00,VWS V14.01,2013-05-31 07:21:00,
2013-05-31 02:25:00,63.5,61.4,29.45,ESE,122,0.0,4.0,93,0.09,,---,0.09,0.00,VWS V14.01,2013-05-31 07:25:00,
2013-05-31 02:26:00,63.5,61.4,29.45,ESE,122,0.0,4.0,93,0.09,,---,0.09,0.00,VWS V14.01,2013-05-31 07:26:00,
2013-05-31 02:30:00,63.4,61.3,29.45,SSW,196,5.0,9.0,93,0.09,,---,0.09,0.00,VWS V14.01,2013-05-31 07:30:00,
2013-05-31 02:31:00,63.4,61.3,29.45,SSW,196,5.0,9.0,93,0.09,,---,0.09,0.00,VWS V14.01,2013-05-31 07:31:00,
2013-05-31 02:35:00,63.4,61.3,29.45,SE,129,2.0,7.0,93,0.09,,---,0.09,0.00,VWS V14.01,2013-05-31 07:35:00,
2013-05-31 02:36:00,63.4,61.3,29.45,SE,129,2.0,7.0,93,0.09,,---,0.09,0.00,VWS V14.01,2013-05-31 07:36:00,
2013-05-31 02:40:00,63.3,61.2,29.44,ESE,115,3.0,3.0,93,0.09,,---,0.09,0.00,VWS V14.01,2013-05-31 07:40:00,
2013-05-31 02:41:00,63.3,61.2,29.44,ESE,115,3.0,3.0,93,0.09,,---,0.09,0.00,VWS V14.01,2013-05-31 07:41:00,
2013-05-31 02:45:00,63.2,61.2,29.44,ESE,113,0.0,4.0,93,0.09,,---,0.09,0.00,VWS V14.01,2013-05-31 07:45:00,
2013-05-31 02:50:00,63.2,61.5,29.44,East,99,0.0,5.0,94,0.09,,---,0.09,0.00,VWS V14.01,2013-05-31 07:50:00,
2013-05-31 02:51:00,63.2,61.5,29.44,East,99,0.0,5.0,94,0.09,,---,0.09,0.00,VWS V14.01,2013-05-31 07:51:00,
2013-05-31 02:55:00,63.0,61.0,29.45,East,101,0.0,4.0,93,0.08,,---,0.09,0.00,VWS V14.01,2013-05-31 07:55:00,
2013-05-31 03:00:00,62.9,61.2,29.45,ESE,114,0.0,6.0,94,0.00,,---,0.09,0.00,VWS V14.01,2013-05-31 08:00:00,
2013-05-31 03:05:00,62.8,61.0,29.44,SE,126,4.0,4.0,94,0.00,,---,0.09,0.00,VWS V14.01,2013-05-31 08:05:00,
2013-05-31 03:10:00,62.6,60.8,29.45,ESE,105,1.0,4.0,94,0.00,,---,0.09,0.00,VWS V14.01,2013-05-31 08:10:00,
2013-05-31 03:15:00,62.5,60.8,29.45,ESE,121,2.0,4.0,94,0.00,,---,0.09,0.00,VWS V14.01,2013-05-31 08:15:00,
2013-05-31 03:20:00,62.4,60.7,29.45,East,87,1.0,4.0,94,0.00,,---,0.09,0.00,VWS V14.01,2013-05-31 08:20:00,
2013-05-31 03:21:00,62.4,60.7,29.45,East,87,1.0,4.0,94,0.00,,---,0.09,0.00,VWS V14.01,2013-05-31 08:21:00,
2013-05-31 03:25:00,62.2,60.5,29.45,ESE,105,3.0,5.0,94,0.00,,---,0.09,0.00,VWS V14.01,2013-05-31 08:25:00,
2013-05-31 03:26:00,62.2,60.5,29.45,ESE,105,3.0,5.0,94,0.00,,---,0.09,0.00,VWS V14.01,2013-05-31 08:26:00,
2013-05-31 03:30:00,62.1,60.7,29.45,ESE,118,0.0,4.0,95,0.00,,---,0.09,0.00,VWS V14.01,2013-05-31 08:30:00,
2013-05-31 03:31:00,62.1,60.7,29.45,ESE,118,0.0,4.0,95,0.00,,---,0.09,0.00,VWS V14.01,2013-05-31 08:31:00,
2013-05-31 03:35:00,62.1,60.7,29.44,ESE,110,3.0,5.0,95,0.00,,---,0.09,0.00,VWS V14.01,2013-05-31 08:35:00,
2013-05-31 03:36:00,62.1,60.7,29.44,ESE,110,3.0,5.0,95,0.00,,---,0.09,0.00,VWS V14.01,2013-05-31 08:36:00,
2013-05-31 03:40:00,62.0,60.6,29.45,ESE,111,0.0,4.0,95,0.00,,---,0.09,0.00,VWS V14.01,2013-05-31 08:40:00,
2013-05-31 03:45:00,61.9,60.5,29.45,ESE,111,2.0,3.0,95,0.00,,---,0.09,0.00,VWS V14.01,2013-05-31 08:45:00,
2013-05-31 03:50:00,61.9,60.5,29.45,ESE,110,1.0,5.0,95,0.00,,---,0.09,0.00,VWS V14.01,2013-05-31 08:50:00,
2013-05-31 03:55:00,61.9,60.5,29.45,ESE,111,0.0,5.0,95,0.00,,---,0.09,0.00,VWS V14.01,2013-05-31 08:55:00,
2013-05-31 03:56:00,61.9,60.5,29.45,ESE,111,0.0,5.0,95,0.00,,---,0.09,0.00,VWS V14.01,2013-05-31 08:56:00,
2013-05-31 04:00:00,61.8,60.4,29.45,SE,132,3.0,7.0,95,0.00,,---,0.09,0.00,VWS V14.01,2013-05-31 09:00:00,
2013-05-31 04:01:00,61.8,60.4,29.45,SE,132,3.0,7.0,95,0.00,,---,0.09,0.00,VWS V14.01,2013-05-31 09:01:00,
2013-05-31 04:05:00,61.8,60.4,29.45,ESE,123,0.0,4.0,95,0.00,,---,0.09,0.00,VWS V14.01,2013-05-31 09:05:00,
2013-05-31 04:10:00,61.7,60.3,29.45,ESE,123,0.0,2.0,95,0.00,,---,0.09,0.00,VWS V14.01,2013-05-31 09:10:00,
2013-05-31 04:15:00,61.7,60.3,29.45,SE,128,0.0,3.0,95,0.00,,---,0.09,0.00,VWS V14.01,2013-05-31 09:15:00,
2013-05-31 04:20:00,61.6,60.2,29.45,ESE,112,1.0,4.0,95,0.00,,---,0.09,0.00,VWS V14.01,2013-05-31 09:20:00,
2013-05-31 04:21:00,61.6,60.2,29.45,ESE,112,1.0,4.0,95,0.00,,---,0.09,0.00,VWS V14.01,2013-05-31 09:21:00,
2013-05-31 04:25:00,61.6,60.2,29.45,ESE,107,3.0,5.0,95,0.00,,---,0.09,0.00,VWS V14.01,2013-05-31 09:25:00,
2013-05-31 04:30:00,61.6,60.2,29.45,ESE,117,4.0,5.0,95,0.00,,---,0.09,0.00,VWS V14.01,2013-05-31 09:30:00,
2013-05-31 04:31:00,61.6,60.2,29.45,ESE,117,4.0,5.0,95,0.00,,---,0.09,0.00,VWS V14.01,2013-05-31 09:31:00,
2013-05-31 04:35:00,61.6,60.2,29.45,ESE,121,1.0,5.0,95,0.00,,---,0.09,0.00,VWS V14.01,2013-05-31 09:35:00,
2013-05-31 04:40:00,61.5,60.1,29.45,ESE,113,4.0,6.0,95,0.00,,---,0.09,0.00,VWS V14.01,2013-05-31 09:40:00,
2013-05-31 04:41:00,61.5,60.1,29.45,ESE,113,4.0,6.0,95,0.00,,---,0.09,0.00,VWS V14.01,2013-05-31 09:41:00,
2013-05-31 04:45:00,61.5,60.1,29.46,East,101,0.0,4.0,95,0.00,,---,0.09,0.00,VWS V14.01,2013-05-31 09:45:00,
2013-05-31 04:46:00,61.5,60.1,29.46,East,101,0.0,4.0,95,0.00,,---,0.09,0.00,VWS V14.01,2013-05-31 09:46:00,
2013-05-31 04:50:00,61.5,60.1,29.46,ESE,121,0.0,5.0,95,0.00,,---,0.09,0.00,VWS V14.01,2013-05-31 09:50:00,
2013-05-31 04:55:00,61.5,60.1,29.46,SSE,151,1.0,4.0,95,0.00,,---,0.09,0.00,VWS V14.01,2013-05-31 09:55:00,
2013-05-31 05:00:00,61.4,60.0,29.46,ESE,122,0.0,3.0,95,0.01,,---,0.10,0.00,VWS V14.01,2013-05-31 10:00:00,
2013-05-31 05:05:00,61.4,60.0,29.47,ESE,118,2.0,3.0,95,0.01,,---,0.10,0.00,VWS V14.01,2013-05-31 10:05:00,
2013-05-31 05:10:00,61.4,60.2,29.46,ESE,103,0.0,5.0,96,0.01,,---,0.10,0.00,VWS V14.01,2013-05-31 10:10:00,
2013-05-31 05:11:00,61.4,60.2,29.46,ESE,103,0.0,5.0,96,0.01,,---,0.10,0.00,VWS V14.01,2013-05-31 10:11:00,
2013-05-31 05:15:00,61.4,60.2,29.46,ESE,109,3.0,5.0,96,0.01,,---,0.10,0.00,VWS V14.01,2013-05-31 10:15:00,
2013-05-31 05:20:00,61.4,60.2,29.46,ESE,103,2.0,5.0,96,0.01,,---,0.10,0.00,VWS V14.01,2013-05-31 10:20:00,
2013-05-31 05:25:00,61.4,60.2,29.46,East,92,3.0,6.0,96,0.01,,---,0.10,0.00,VWS V14.01,2013-05-31 10:25:00,
2013-05-31 05:30:00,61.4,60.2,29.47,ESE,107,4.0,6.0,96,0.01,,---,0.10,0.00,VWS V14.01,2013-05-31 10:30:00,
2013-05-31 05:31:00,61.4,60.2,29.47,ESE,107,4.0,6.0,96,0.01,,---,0.10,0.00,VWS V14.01,2013-05-31 10:31:00,
2013-05-31 05:35:00,61.4,60.2,29.47,ESE,120,1.0,5.0,96,0.01,,---,0.10,7.00,VWS V14.01,2013-05-31 10:35:00,
2013-05-31 05:41:00,61.4,60.2,29.47,ESE,109,4.0,6.0,96,0.01,,---,0.10,11.00,VWS V14.01,2013-05-31 10:41:00,
2013-05-31 05:45:00,61.4,60.2,29.47,ESE,119,5.0,6.0,96,0.01,,---,0.10,14.00,VWS V14.01,2013-05-31 10:45:00,
2013-05-31 05:46:00,61.4,60.2,29.47,ESE,119,5.0,6.0,96,0.01,,---,0.10,14.00,VWS V14.01,2013-05-31 10:46:00,
2013-05-31 05:50:00,61.4,60.2,29.47,SE,124,0.0,6.0,96,0.01,,---,0.10,16.00,VWS V14.01,2013-05-31 10:50:00,
2013-05-31 05:55:00,61.4,60.0,29.47,East,99,3.0,7.0,95,0.01,,---,0.10,18.00,VWS V14.01,2013-05-31 10:55:00,
2013-05-31 06:00:00,61.5,60.1,29.47,SE,145,4.0,8.0,95,0.01,,---,0.10,19.00,VWS V14.01,2013-05-31 11:00:00,
2013-05-31 06:05:00,61.4,60.0,29.47,ESE,121,3.0,7.0,95,0.00,,---,0.10,21.00,VWS V14.01,2013-05-31 11:05:00,
2013-05-31 06:10:00,61.4,60.0,29.47,ESE,123,0.0,7.0,95,0.00,,---,0.10,25.00,VWS V14.01,2013-05-31 11:10:00,
2013-05-31 06:15:00,61.4,60.0,29.47,ESE,108,3.0,7.0,95,0.00,,---,0.10,28.00,VWS V14.01,2013-05-31 11:15:00,
2013-05-31 06:16:00,61.4,60.0,29.47,ESE,108,3.0,7.0,95,0.00,,---,0.10,28.00,VWS V14.01,2013-05-31 11:16:00,
2013-05-31 06:20:00,61.4,60.0,29.46,ESE,115,5.0,9.0,95,0.00,,---,0.10,32.00,VWS V14.01,2013-05-31 11:20:00,
2013-05-31 06:25:00,61.4,60.0,29.46,ESE,114,1.0,9.0,95,0.00,,---,0.10,39.00,VWS V14.01,2013-05-31 11:25:00,
2013-05-31 06:26:00,61.4,60.0,29.46,ESE,114,1.0,9.0,95,0.00,,---,0.10,39.00,VWS V14.01,2013-05-31 11:26:00,
2013-05-31 06:30:00,61.4,60.0,29.46,ESE,123,3.0,10.0,95,0.00,,---,0.10,51.00,VWS V14.01,2013-05-31 11:30:00,
2013-05-31 06:31:00,61.4,60.0,29.46,ESE,123,3.0,10.0,95,0.00,,---,0.10,51.00,VWS V14.01,2013-05-31 11:31:00,
2013-05-31 06:35:00,61.4,60.0,29.46,ESE,105,2.0,6.0,95,0.00,,---,0.10,72.00,VWS V14.01,2013-05-31 11:35:00,
2013-05-31 06:40:00,61.5,59.8,29.46,ESE,109,3.0,12.0,94,0.00,,---,0.10,81.00,VWS V14.01,2013-05-31 11:40:00,
2013-05-31 06:41:00,61.5,59.8,29.46,ESE,109,3.0,12.0,94,0.00,,---,0.10,81.00,VWS V14.01,2013-05-31 11:41:00,
2013-05-31 06:45:00,61.6,59.9,29.46,SE,141,5.0,6.0,94,0.00,,---,0.10,91.00,VWS V14.01,2013-05-31 11:45:00,
2013-05-31 06:46:00,61.6,59.9,29.46,SE,141,5.0,6.0,94,0.00,,---,0.10,91.00,VWS V14.01,2013-05-31 11:46:00,
2013-05-31 06:50:00,61.6,59.9,29.46,ESE,107,3.0,7.0,94,0.00,,---,0.10,102.00,VWS V14.01,2013-05-31 11:50:00,
2013-05-31 06:51:00,61.6,59.9,29.46,ESE,107,3.0,7.0,94,0.00,,---,0.10,102.00,VWS V14.01,2013-05-31 11:51:00,
2013-05-31 06:55:00,61.8,60.1,29.46,SSE,159,0.0,9.0,94,0.00,,---,0.10,113.00,VWS V14.01,2013-05-31 11:55:00,
2013-05-31 06:56:00,61.8,60.1,29.46,SSE,159,0.0,9.0,94,0.00,,---,0.10,113.00,VWS V14.01,2013-05-31 11:56:00,
2013-05-31 07:00:00,61.8,60.1,29.45,East,98,0.0,6.0,94,0.00,,---,0.10,118.00,VWS V14.01,2013-05-31 12:00:00,
2013-05-31 07:01:00,61.8,60.1,29.45,East,98,0.0,6.0,94,0.00,,---,0.10,118.00,VWS V14.01,2013-05-31 12:01:00,
2013-05-31 07:05:00,62.0,60.0,29.45,ESE,115,0.0,10.0,93,0.00,,---,0.10,139.00,VWS V14.01,2013-05-31 12:05:00,
2013-05-31 07:10:00,62.2,60.2,29.46,East,92,4.0,10.0,93,0.00,,---,0.10,128.00,VWS V14.01,2013-05-31 12:10:00,
2013-05-31 07:11:00,62.2,60.2,29.46,East,92,4.0,10.0,93,0.00,,---,0.10,128.00,VWS V14.01,2013-05-31 12:11:00,
2013-05-31 07:15:00,62.3,60.0,29.45,ESE,121,9.0,9.0,92,0.00,,---,0.10,169.00,VWS V14.01,2013-05-31 12:15:00,
2013-05-31 07:16:00,62.3,60.0,29.45,ESE,121,9.0,9.0,92,0.00,,---,0.10,169.00,VWS V14.01,2013-05-31 12:16:00,
2013-05-31 07:20:00,62.5,59.8,29.46,East,84,2.0,10.0,91,0.00,,---,0.10,128.00,VWS V14.01,2013-05-31 12:20:00,
2013-05-31 07:21:00,62.5,59.8,29.46,East,84,2.0,10.0,91,0.00,,---,0.10,128.00,VWS V14.01,2013-05-31 12:21:00,
2013-05-31 07:25:00,62.5,59.5,29.46,East,88,6.0,7.0,90,0.00,,---,0.10,109.00,VWS V14.01,2013-05-31 12:25:00,
2013-05-31 07:30:00,62.6,59.6,29.45,SSW,206,3.0,10.0,90,0.00,,---,0.10,155.00,VWS V14.01,2013-05-31 12:30:00,
2013-05-31 07:35:00,62.7,59.4,29.46,East,79,0.0,10.0,89,0.00,,---,0.10,239.00,VWS V14.01,2013-05-31 12:35:00,
2013-05-31 07:36:00,62.7,59.4,29.46,East,79,0.0,10.0,89,0.00,,---,0.10,239.00,VWS V14.01,2013-05-31 12:36:00,
2013-05-31 07:40:00,63.1,59.8,29.46,South,175,0.0,5.0,89,0.00,,---,0.10,209.00,VWS V14.01,2013-05-31 12:40:00,
2013-05-31 07:41:00,63.1,59.8,29.46,South,175,0.0,5.0,89,0.00,,---,0.10,209.00,VWS V14.01,2013-05-31 12:41:00,
2013-05-31 07:45:00,63.3,59.7,29.45,SW,227,0.0,10.0,88,0.00,,---,0.10,330.00,VWS V14.01,2013-05-31 12:45:00,
2013-05-31 07:50:00,63.5,59.6,29.45,ESE,112,3.0,12.0,87,0.00,,---,0.10,336.00,VWS V14.01,2013-05-31 12:50:00,
2013-05-31 07:55:00,64.0,59.4,29.45,ESE,112,4.0,13.0,85,0.00,,---,0.10,350.00,VWS V14.01,2013-05-31 12:55:00,
2013-05-31 08:00:00,64.4,59.5,29.45,ESE,112,3.0,13.0,84,0.00,,---,0.10,370.00,VWS V14.01,2013-05-31 13:00:00,
2013-05-31 08:13:00,64.7,58.7,29.44,ESE,112,6.0,19.0,81,0.00,,---,0.10,389.00,VWS V14.01,2013-05-31 13:13:00,
2013-05-31 08:21:00,65.3,58.3,29.45,South,169,6.0,15.0,78,0.00,,---,0.10,441.00,VWS V14.01,2013-05-31 13:21:00,
2013-05-31 08:30:00,66.0,58.2,29.45,ESE,107,0.0,7.0,76,0.00,,---,0.10,475.00,VWS V14.01,2013-05-31 13:30:00,
2013-05-31 08:41:00,66.3,57.8,29.46,South,175,5.0,10.0,74,0.00,,---,0.10,501.00,VWS V14.01,2013-05-31 13:41:00,
2013-05-31 08:50:00,67.1,58.2,29.45,SSW,203,4.0,10.0,73,0.00,,---,0.10,531.00,VWS V14.01,2013-05-31 13:50:00,
2013-05-31 08:55:00,67.5,58.2,29.46,WSW,244,9.0,13.0,72,0.00,,---,0.10,547.00,VWS V14.01,2013-05-31 13:55:00,
2013-05-31 09:00:00,67.5,57.0,29.45,West,279,2.0,14.0,69,0.00,,---,0.10,561.00,VWS V14.01,2013-05-31 14:00:00,
2013-05-31 09:10:00,67.4,56.5,29.46,SW,221,4.0,16.0,68,0.00,,---,0.10,587.00,VWS V14.01,2013-05-31 14:10:00,
2013-05-31 09:15:00,67.6,57.1,29.46,SW,216,2.0,11.0,69,0.00,,---,0.10,606.00,VWS V14.01,2013-05-31 14:15:00,
2013-05-31 09:20:00,67.5,56.2,29.47,South,169,5.0,19.0,67,0.00,,---,0.10,619.00,VWS V14.01,2013-05-31 14:20:00,
2013-05-31 09:25:00,67.3,55.6,29.47,South,186,4.0,19.0,66,0.00,,---,0.10,635.00,VWS V14.01,2013-05-31 14:25:00,
2013-05-31 09:30:00,67.4,55.2,29.47,SW,222,16.0,22.0,65,0.00,,---,0.10,649.00,VWS V14.01,2013-05-31 14:30:00,
2013-05-31 09:35:00,67.6,55.0,29.46,SSE,158,8.0,17.0,64,0.00,,---,0.10,663.00,VWS V14.01,2013-05-31 14:35:00,
2013-05-31 09:40:00,67.8,55.2,29.45,WSW,237,12.0,15.0,64,0.00,,---,0.10,680.00,VWS V14.01,2013-05-31 14:40:00,
2013-05-31 09:45:00,68.1,55.0,29.45,ESE,122,1.0,16.0,63,0.00,,---,0.10,691.00,VWS V14.01,2013-05-31 14:45:00,
2013-05-31 09:50:00,68.3,54.8,29.46,SW,227,11.0,22.0,62,0.00,,---,0.10,703.00,VWS V14.01,2013-05-31 14:50:00,
2013-05-31 09:55:00,68.5,54.5,29.46,SSW,211,22.0,22.0,61,0.00,,---,0.10,714.00,VWS V14.01,2013-05-31 14:55:00,
2013-05-31 10:00:00,68.6,54.2,29.46,WSW,240,4.0,22.0,60,0.00,,---,0.10,728.00,VWS V14.01,2013-05-31 15:00:00,
2013-05-31 10:05:00,68.8,54.8,29.45,SE,134,5.0,20.0,61,0.00,,---,0.10,740.00,VWS V14.01,2013-05-31 15:05:00,
2013-05-31 10:11:00,69.5,54.6,29.45,SW,220,12.0,14.0,59,0.00,,---,0.10,752.00,VWS V14.01,2013-05-31 15:11:00,
2013-05-31 10:20:00,69.9,54.5,29.45,SSE,167,4.0,19.0,58,0.00,,---,0.10,775.00,VWS V14.01,2013-05-31 15:20:00,
2013-05-31 10:25:00,69.9,54.9,29.45,South,174,10.0,22.0,59,0.00,,---,0.10,789.00,VWS V14.01,2013-05-31 15:25:00,
2013-05-31 10:30:00,69.9,54.5,29.45,South,184,9.0,17.0,58,0.00,,---,0.10,798.00,VWS V14.01,2013-05-31 15:30:00,
2013-05-31 10:35:00,70.0,55.0,29.45,SSE,167,7.0,21.0,59,0.00,,---,0.10,809.00,VWS V14.01,2013-05-31 15:35:00,
2013-05-31 10:40:00,70.2,54.8,29.45,SW,227,7.0,18.0,58,0.00,,---,0.10,819.00,VWS V14.01,2013-05-31 15:40:00,
2013-05-31 10:45:00,70.9,54.9,29.45,SW,222,12.0,20.0,57,0.00,,---,0.10,828.00,VWS V14.01,2013-05-31 15:45:00,
2013-05-31 10:50:00,71.1,55.1,29.45,WSW,252,6.0,19.0,57,0.00,,---,0.10,837.00,VWS V14.01,2013-05-31 15:50:00,
2013-05-31 10:55:00,71.5,56.0,29.45,SW,232,1.0,19.0,58,0.00,,---,0.10,846.00,VWS V14.01,2013-05-31 15:55:00,
2013-05-31 11:00:00,72.1,55.6,29.45,SSW,200,6.0,16.0,56,0.00,,---,0.10,856.00,VWS V14.01,2013-05-31 16:00:00,
2013-05-31 11:06:00,72.4,56.3,29.45,SSW,207,2.0,15.0,57,0.00,,---,0.10,863.00,VWS V14.01,2013-05-31 16:06:00,
2013-05-31 11:15:00,73.2,56.6,29.45,East,84,5.0,14.0,56,0.00,,---,0.10,877.00,VWS V14.01,2013-05-31 16:15:00,
2013-05-31 11:21:00,73.1,56.5,29.45,South,169,3.0,13.0,56,0.00,,---,0.10,893.00,VWS V14.01,2013-05-31 16:21:00,
2013-05-31 11:30:00,73.6,56.5,29.45,SW,223,13.0,19.0,55,0.00,,---,0.10,911.00,VWS V14.01,2013-05-31 16:30:00,
2013-05-31 11:35:00,73.3,57.2,29.46,SW,233,4.0,22.0,57,0.00,,---,0.10,916.00,VWS V14.01,2013-05-31 16:35:00,
2013-05-31 11:41:00,74.1,56.9,29.45,ESE,119,11.0,12.0,55,0.00,,---,0.10,926.00,VWS V14.01,2013-05-31 16:41:00,
2013-05-31 11:50:00,73.8,57.1,29.45,SE,137,4.0,19.0,56,0.00,,---,0.10,932.00,VWS V14.01,2013-05-31 16:50:00,
2013-05-31 11:56:00,73.7,58.0,29.45,SE,130,10.0,23.0,58,0.00,,---,0.10,933.00,VWS V14.01,2013-05-31 16:56:00,
2013-05-31 12:01:00,73.7,58.0,29.45,SSW,213,4.0,15.0,58,0.00,,---,0.10,944.00,VWS V14.01,2013-05-31 17:01:00,
2013-05-31 12:10:00,74.3,58.6,29.46,WSW,249,14.0,16.0,58,0.00,,---,0.10,956.00,VWS V14.01,2013-05-31 17:10:00,
2013-05-31 12:15:00,74.3,57.6,29.45,West,267,9.0,16.0,56,0.00,,---,0.10,967.00,VWS V14.01,2013-05-31 17:15:00,
2013-05-31 12:20:00,73.9,57.2,29.45,SW,233,21.0,24.0,56,0.00,,---,0.10,1005.00,VWS V14.01,2013-05-31 17:20:00,
2013-05-31 12:25:00,73.9,57.7,29.45,South,190,2.0,23.0,57,0.00,,---,0.10,1018.00,VWS V14.01,2013-05-31 17:25:00,
2013-05-31 12:31:00,74.3,57.1,29.45,SW,219,9.0,17.0,55,0.00,,---,0.10,990.00,VWS V14.01,2013-05-31 17:31:00,
2013-05-31 12:40:00,74.7,57.5,29.45,SW,215,14.0,25.0,55,0.00,,---,0.10,1048.00,VWS V14.01,2013-05-31 17:40:00,
2013-05-31 12:45:00,74.6,57.9,29.45,SW,217,6.0,18.0,56,0.00,,---,0.10,1046.00,VWS V14.01,2013-05-31 17:45:00,
2013-05-31 12:51:00,75.3,58.0,29.45,SW,230,21.0,21.0,55,0.00,,---,0.10,1007.00,VWS V14.01,2013-05-31 17:51:00,
2013-05-31 12:56:00,75.6,58.3,29.45,SSW,198,17.0,21.0,55,0.00,,---,0.10,1081.00,VWS V14.01,2013-05-31 17:56:00,
2013-05-31 13:05:00,75.7,58.9,29.45,South,183,14.0,17.0,56,0.00,,---,0.10,575.00,VWS V14.01,2013-05-31 18:05:00,
2013-05-31 13:10:00,75.7,58.4,29.45,SW,233,15.0,18.0,55,0.00,,---,0.10,1139.00,VWS V14.01,2013-05-31 18:10:00,
2013-05-31 13:16:00,76.0,58.2,29.45,SE,130,5.0,19.0,54,0.00,,---,0.10,1095.00,VWS V14.01,2013-05-31 18:16:00,
2013-05-31 13:25:00,76.0,58.2,29.44,West,261,5.0,20.0,54,0.00,,---,0.10,1048.00,VWS V14.01,2013-05-31 18:25:00,
2013-05-31 13:30:00,76.0,57.7,29.45,WSW,237,18.0,24.0,53,0.00,,---,0.10,1097.00,VWS V14.01,2013-05-31 18:30:00,
2013-05-31 13:35:00,76.1,58.8,29.44,WSW,257,15.0,18.0,55,0.00,,---,0.10,1067.00,VWS V14.01,2013-05-31 18:35:00,
2013-05-31 13:40:00,76.5,58.1,29.44,SW,214,18.0,18.0,53,0.00,,---,0.10,1011.00,VWS V14.01,2013-05-31 18:40:00,
2013-05-31 13:46:00,76.4,58.5,29.43,SSW,207,23.0,29.0,54,0.00,,---,0.10,1083.00,VWS V14.01,2013-05-31 18:46:00,
2013-05-31 13:56:00,76.5,58.6,29.43,SW,215,5.0,22.0,54,0.00,,---,0.10,1100.00,VWS V14.01,2013-05-31 18:56:00,
2013-05-31 14:05:00,75.4,58.6,29.43,SW,222,16.0,31.0,56,0.00,,---,0.10,308.00,VWS V14.01,2013-05-31 19:05:00,
2013-05-31 14:10:00,75.9,59.6,29.42,SW,216,16.0,26.0,57,0.00,,---,0.10,1109.00,VWS V14.01,2013-05-31 19:10:00,
2013-05-31 14:15:00,76.2,58.9,29.43,WSW,252,18.0,18.0,55,0.00,,---,0.10,153.00,VWS V14.01,2013-05-31 19:15:00,
2013-05-31 14:20:00,74.8,58.6,29.43,WSW,237,20.0,28.0,57,0.00,,---,0.10,151.00,VWS V14.01,2013-05-31 19:20:00,
2013-05-31 14:26:00,74.1,59.3,29.43,West,259,25.0,28.0,60,0.00,,---,0.10,1208.00,VWS V14.01,2013-05-31 19:26:00,
2013-05-31 14:35:00,72.3,60.3,29.42,WSW,240,9.0,17.0,66,0.01,,---,0.11,113.00,VWS V14.01,2013-05-31 19:35:00,
2013-05-31 14:41:00,71.3,60.2,29.43,SW,224,27.0,27.0,68,0.01,,---,0.11,104.00,VWS V14.01,2013-05-31 19:41:00,
2013-05-31 14:51:00,68.9,60.7,29.43,SSW,209,14.0,14.0,75,0.05,,---,0.15,192.00,VWS V14.01,2013-05-31 19:51:00,
2013-05-31 15:00:00,70.9,60.2,29.42,SW,225,13.0,19.0,69,0.05,,---,0.15,1009.00,VWS V14.01,2013-05-31 20:00:00,
2013-05-31 15:05:00,73.1,60.7,29.42,SSW,196,13.0,18.0,65,0.05,,---,0.15,974.00,VWS V14.01,2013-05-31 20:05:00,
2013-05-31 15:10:00,74.5,57.8,29.42,SW,221,20.0,25.0,56,0.05,,---,0.15,1053.00,VWS V14.01,2013-05-31 20:10:00,
2013-05-31 15:15:00,75.3,54.3,29.43,SW,229,22.0,27.0,48,0.05,,---,0.15,930.00,VWS V14.01,2013-05-31 20:15:00,
2013-05-31 15:21:00,75.7,52.9,29.43,SSW,199,5.0,27.0,45,0.05,,---,0.15,1088.00,VWS V14.01,2013-05-31 20:21:00,
2013-05-31 15:30:00,74.9,53.9,29.44,SW,217,13.0,27.0,48,0.05,,---,0.15,338.00,VWS V14.01,2013-05-31 20:30:00,
2013-05-31 15:35:00,74.9,53.9,29.43,SW,215,16.0,24.0,48,0.05,,---,0.15,1023.00,VWS V14.01,2013-05-31 20:35:00,
2013-05-31 15:40:00,75.5,55.0,29.43,SW,236,11.0,21.0,49,0.04,,---,0.15,243.00,VWS V14.01,2013-05-31 20:40:00,
2013-05-31 15:45:00,75.5,55.0,29.43,SSW,203,11.0,24.0,49,0.04,,---,0.15,1002.00,VWS V14.01,2013-05-31 20:45:00,
2013-05-31 15:51:00,75.4,54.9,29.43,SW,235,17.0,28.0,49,0.00,,---,0.15,990.00,VWS V14.01,2013-05-31 20:51:00,
2013-05-31 15:56:00,75.6,55.7,29.44,SSW,205,19.0,20.0,50,0.00,,---,0.15,287.00,VWS V14.01,2013-05-31 20:56:00,
2013-05-31 16:05:00,74.9,55.6,29.43,SSW,198,6.0,18.0,51,0.01,,---,0.16,265.00,VWS V14.01,2013-05-31 21:05:00,
2013-05-31 16:11:00,75.5,56.1,29.44,SSW,213,12.0,18.0,51,0.01,,---,0.16,831.00,VWS V14.01,2013-05-31 21:11:00,
2013-05-31 16:20:00,75.1,54.7,29.44,SW,233,12.0,24.0,49,0.01,,---,0.16,269.00,VWS V14.01,2013-05-31 21:20:00,
2013-05-31 16:26:00,74.5,54.1,29.44,SSW,204,14.0,31.0,49,0.01,,---,0.16,946.00,VWS V14.01,2013-05-31 21:26:00,
2013-05-31 16:36:00,75.1,54.7,29.44,WSW,240,20.0,23.0,49,0.01,,---,0.16,352.00,VWS V14.01,2013-05-31 21:36:00,
2013-05-31 16:45:00,75.1,54.7,29.44,SW,226,19.0,25.0,49,0.01,,---,0.16,740.00,VWS V14.01,2013-05-31 21:45:00,
2013-05-31 16:51:00,75.1,55.2,29.44,SSW,196,19.0,25.0,50,0.01,,---,0.16,742.00,VWS V14.01,2013-05-31 21:51:00,
2013-05-31 17:01:00,75.3,54.8,29.44,SW,228,11.0,22.0,49,0.01,,---,0.16,253.00,VWS V14.01,2013-05-31 22:01:00,
2013-05-31 17:11:00,74.1,53.7,29.44,WSW,244,16.0,25.0,49,0.00,,---,0.16,299.00,VWS V14.01,2013-05-31 22:11:00,
2013-05-31 17:21:00,74.1,53.7,29.44,WSW,240,13.0,22.0,49,0.00,,---,0.16,218.00,VWS V14.01,2013-05-31 22:21:00,
2013-05-31 17:26:00,74.1,53.2,29.44,SW,214,10.0,24.0,48,0.00,,---,0.16,274.00,VWS V14.01,2013-05-31 22:26:00,
2013-05-31 17:35:00,74.0,54.2,29.44,West,267,10.0,20.0,50,0.00,,---,0.16,165.00,VWS V14.01,2013-05-31 22:35:00,
2013-05-31 17:41:00,73.8,54.0,29.44,SW,217,12.0,20.0,50,0.00,,---,0.16,186.00,VWS V14.01,2013-05-31 22:41:00,
2013-05-31 17:46:00,73.6,53.8,29.44,South,183,13.0,16.0,50,0.00,,---,0.16,151.00,VWS V14.01,2013-05-31 22:46:00,
2013-05-31 17:56:00,73.3,54.1,29.44,South,190,10.0,16.0,51,0.00,,---,0.16,188.00,VWS V14.01,2013-05-31 22:56:00,
2013-05-31 18:01:00,73.3,54.1,29.45,SSW,209,11.0,15.0,51,0.00,,---,0.16,151.00,VWS V14.01,2013-05-31 23:01:00,
2013-05-31 18:10:00,73.7,53.4,29.44,SW,217,16.0,19.0,49,0.00,,---,0.16,232.00,VWS V14.01,2013-05-31 23:10:00,
2013-05-31 18:16:00,73.8,53.5,29.44,SSW,211,20.0,20.0,49,0.00,,---,0.16,227.00,VWS V14.01,2013-05-31 23:16:00,
2013-05-31 18:26:00,73.1,53.9,29.45,WSW,253,11.0,18.0,51,0.00,,---,0.16,137.00,VWS V14.01,2013-05-31 23:26:00,
2013-05-31 18:31:00,72.8,53.1,29.45,SW,222,9.0,17.0,50,0.00,,---,0.16,130.00,VWS V14.01,2013-05-31 23:31:00,
2013-05-31 18:36:00,72.6,53.5,29.45,SW,230,3.0,14.0,51,0.00,,---,0.16,74.00,VWS V14.01,2013-05-31 23:36:00,
2013-05-31 18:45:00,72.5,53.4,29.45,SW,215,9.0,12.0,51,0.00,,---,0.16,114.00,VWS V14.01,2013-05-31 23:45:00,
2013-05-31 18:50:00,72.6,52.9,29.45,WSW,242,5.0,15.0,50,0.00,,---,0.16,107.00,VWS V14.01,2013-05-31 23:50:00,
2013-05-31 18:55:00,72.6,53.5,29.45,SW,218,7.0,9.0,51,0.00,,---,0.16,142.00,VWS V14.01,2013-05-31 23:55:00,
2013-05-31 19:00:00,72.5,53.4,29.46,SW,222,5.0,10.0,51,0.00,,---,0.16,193.00,VWS V14.01,2013-06-01 00:00:00,
2013-05-31 19:05:00,72.3,52.6,29.46,SSW,199,5.0,17.0,50,0.00,,---,0.16,174.00,VWS V14.01,2013-06-01 00:05:00,
2013-05-31 19:11:00,72.2,53.1,29.46,SSW,212,10.0,15.0,51,0.00,,---,0.16,120.00,VWS V14.01,2013-06-01 00:11:00,
2013-05-31 19:21:00,71.9,53.3,29.46,SSW,213,3.0,6.0,52,0.00,,---,0.16,33.00,VWS V14.01,2013-06-01 00:21:00,
2013-05-31 19:26:00,71.7,52.6,29.47,SW,214,7.0,10.0,51,0.00,,---,0.16,49.00,VWS V14.01,2013-06-01 00:26:00,
2013-05-31 19:35:00,71.6,53.1,29.47,SW,223,4.0,8.0,52,0.00,,---,0.16,40.00,VWS V14.01,2013-06-01 00:35:00,
2013-05-31 19:41:00,71.4,52.9,29.47,SW,219,2.0,6.0,52,0.00,,---,0.16,33.00,VWS V14.01,2013-06-01 00:41:00,
2013-05-31 19:51:00,71.3,52.8,29.47,South,182,4.0,7.0,52,0.00,,---,0.16,32.00,VWS V14.01,2013-06-01 00:51:00,
2013-05-31 20:01:00,71.1,53.1,29.47,SW,228,5.0,9.0,53,0.00,,---,0.16,32.00,VWS V14.01,2013-06-01 01:01:00,
2013-05-31 20:10:00,70.9,53.4,29.47,SSW,203,0.0,7.0,54,0.00,,---,0.16,30.00,VWS V14.01,2013-06-01 01:10:00,
2013-05-31 20:16:00,70.7,53.3,29.47,SSW,202,1.0,4.0,54,0.00,,---,0.16,28.00,VWS V14.01,2013-06-01 01:16:00,
2013-05-31 20:21:00,70.5,53.6,29.47,SSW,200,2.0,4.0,55,0.00,,---,0.16,23.00,VWS V14.01,2013-06-01 01:21:00,
2013-05-31 20:30:00,70.3,53.4,29.47,SSW,207,0.0,6.0,55,0.00,,---,0.16,12.00,VWS V14.01,2013-06-01 01:30:00,
2013-05-31 20:35:00,70.1,53.2,29.47,SSW,205,2.0,5.0,55,0.00,,---,0.16,9.00,VWS V14.01,2013-06-01 01:35:00,
2013-05-31 20:40:00,70.0,53.6,29.47,SSW,205,0.0,2.0,56,0.00,,---,0.16,5.00,VWS V14.01,2013-06-01 01:40:00,
2013-05-31 20:45:00,69.9,53.5,29.47,SSW,210,2.0,4.0,56,0.00,,---,0.16,0.00,VWS V14.01,2013-06-01 01:45:00,
2013-05-31 20:51:00,69.7,53.3,29.47,SSW,210,2.0,3.0,56,0.00,,---,0.16,0.00,VWS V14.01,2013-06-01 01:51:00,
2013-05-31 21:01:00,69.6,53.2,29.47,SSW,205,2.0,6.0,56,0.00,,---,0.16,0.00,VWS V14.01,2013-06-01 02:01:00,
2013-05-31 21:06:00,69.6,53.2,29.47,South,190,5.0,5.0,56,0.00,,---,0.16,0.00,VWS V14.01,2013-06-01 02:06:00,
2013-05-31 21:15:00,69.5,53.1,29.47,SSE,165,0.0,5.0,56,0.00,,---,0.16,0.00,VWS V14.01,2013-06-01 02:15:00,
2013-05-31 21:21:00,69.4,52.5,29.46,SW,219,0.0,6.0,55,0.00,,---,0.16,0.00,VWS V14.01,2013-06-01 02:21:00,
2013-05-31 21:31:00,68.9,53.1,29.46,SW,218,0.0,2.0,57,0.00,,---,0.16,0.00,VWS V14.01,2013-06-01 02:31:00,
2013-05-31 21:36:00,68.6,53.2,29.46,SW,219,0.0,1.0,58,0.00,,---,0.16,0.00,VWS V14.01,2013-06-01 02:36:00,
2013-05-31 21:46:00,67.7,53.3,29.46,SW,219,0.0,0.0,60,0.00,,---,0.16,0.00,VWS V14.01,2013-06-01 02:46:00,
2013-05-31 21:51:00,67.3,53.8,29.46,SW,219,0.0,0.0,62,0.00,,---,0.16,0.00,VWS V14.01,2013-06-01 02:51:00,
2013-05-31 22:01:00,66.5,54.0,29.46,SW,219,0.0,0.0,64,0.00,,---,0.16,0.00,VWS V14.01,2013-06-01 03:01:00,
2013-05-31 22:10:00,65.8,53.7,29.45,SW,219,0.0,0.0,65,0.00,,---,0.16,0.00,VWS V14.01,2013-06-01 03:10:00,
2013-05-31 22:15:00,65.2,53.6,29.45,SW,219,0.0,0.0,66,0.00,,---,0.16,0.00,VWS V14.01,2013-06-01 03:15:00,
2013-05-31 22:20:00,64.5,53.7,29.46,SW,218,0.0,0.0,68,0.00,,---,0.16,0.00,VWS V14.01,2013-06-01 03:20:00,
2013-05-31 22:26:00,63.9,53.5,29.46,SW,218,0.0,0.0,69,0.00,,---,0.16,0.00,VWS V14.01,2013-06-01 03:26:00,
2013-05-31 22:36:00,62.9,54.1,29.47,SW,219,0.0,2.0,73,0.00,,---,0.16,0.00,VWS V14.01,2013-06-01 03:36:00,
2013-05-31 22:45:00,63.8,56.1,29.48,SE,126,3.0,5.0,76,0.00,,---,0.16,0.00,VWS V14.01,2013-06-01 03:45:00,
2013-05-31 22:50:00,64.1,56.4,29.48,SE,125,0.0,3.0,76,0.00,,---,0.16,0.00,VWS V14.01,2013-06-01 03:50:00,
2013-05-31 22:55:00,64.1,56.4,29.48,SE,125,0.0,2.0,76,0.00,,---,0.16,0.00,VWS V14.01,2013-06-01 03:55:00,
2013-05-31 23:00:00,64.1,56.8,29.48,ESE,123,1.0,3.0,77,0.00,,---,0.16,0.00,VWS V14.01,2013-06-01 04:00:00,
2013-05-31 23:05:00,64.2,56.8,29.48,ESE,116,0.0,4.0,77,0.00,,---,0.16,0.00,VWS V14.01,2013-06-01 04:05:00,
2013-05-31 23:11:00,64.3,57.0,29.48,ESE,115,0.0,3.0,77,0.00,,---,0.16,0.00,VWS V14.01,2013-06-01 04:11:00,
2013-05-31 23:16:00,64.3,57.0,29.49,ESE,115,0.0,3.0,77,0.00,,---,0.16,0.00,VWS V14.01,2013-06-01 04:16:00,
2013-05-31 23:20:00,64.3,57.0,29.49,ESE,114,3.0,3.0,77,0.00,,---,0.16,0.00,VWS V14.01,2013-06-01 04:20:00,
2013-05-31 23:26:00,64.2,56.8,29.48,ESE,115,2.0,3.0,77,0.00,,---,0.16,0.00,VWS V14.01,2013-06-01 04:26:00,
2013-05-31 23:31:00,64.3,57.3,29.48,ESE,115,0.0,2.0,78,0.00,,---,0.16,0.00,VWS V14.01,2013-06-01 04:31:00,
2013-05-31 23:41:00,64.1,57.5,29.48,ESE,114,0.0,0.0,79,0.00,,---,0.16,0.00,VWS V14.01,2013-06-01 04:41:00,
2013-05-31 23:50:00,63.9,57.3,29.48,ESE,115,0.0,0.0,79,0.00,,---,0.16,0.00,VWS V14.01,2013-06-01 04:50:00,
2013-05-31 23:55:00,63.7,57.4,29.48,ESE,114,0.0,0.0,80,0.00,,---,0.16,0.00,VWS V14.01,2013-06-01 04:55:00,